sensor_id;sensor_type;location;lat;lon;timestamp;temperature;humidity
18024;DHT22;9137;50.960;3.118;2023-07-02T00:01:59;17.60;99.90
18024;DHT22;9137;50.960;3.118;2023-07-02T00:04:27;17.60;99.90
18024;DHT22;9137;50.960;3.118;2023-07-02T00:06:55;17.60;99.90
18024;DHT22;9137;50.960;3.118;2023-07-02T00:09:22;17.50;99.90
18024;DHT22;9137;50.960;3.118;2023-07-02T00:11:48;17.50;99.90
18024;DHT22;9137;50.960;3.118;2023-07-02T00:14:15;17.50;99.90
18024;DHT22;9137;50.960;3.118;2023-07-02T00:16:44;17.50;99.90
18024;DHT22;9137;50.960;3.118;2023-07-02T00:19:11;17.50;99.90
18024;DHT22;9137;50.960;3.118;2023-07-02T00:21:39;17.40;99.90
18024;DHT22;9137;50.960;3.118;2023-07-02T00:24:07;17.40;99.90
18024;DHT22;9137;50.960;3.118;2023-07-02T00:26:35;17.40;99.90
18024;DHT22;9137;50.960;3.118;2023-07-02T00:29:04;17.40;99.90
18024;DHT22;9137;50.960;3.118;2023-07-02T00:31:31;17.40;99.90
18024;DHT22;9137;50.960;3.118;2023-07-02T00:33:59;17.50;99.90
18024;DHT22;9137;50.960;3.118;2023-07-02T00:36:27;17.40;99.90
18024;DHT22;9137;50.960;3.118;2023-07-02T00:38:56;17.30;99.90
18024;DHT22;9137;50.960;3.118;2023-07-02T00:41:24;17.30;99.90
18024;DHT22;9137;50.960;3.118;2023-07-02T00:43:51;17.30;99.90
18024;DHT22;9137;50.960;3.118;2023-07-02T00:46:22;17.30;99.90
18024;DHT22;9137;50.960;3.118;2023-07-02T00:48:51;17.30;99.90
18024;DHT22;9137;50.960;3.118;2023-07-02T00:51:20;17.30;99.90
18024;DHT22;9137;50.960;3.118;2023-07-02T00:53:48;17.30;99.90
18024;DHT22;9137;50.960;3.118;2023-07-02T00:56:17;17.30;99.90
18024;DHT22;9137;50.960;3.118;2023-07-02T00:58:45;17.30;99.90
18024;DHT22;9137;50.960;3.118;2023-07-02T01:01:14;17.20;99.90
18024;DHT22;9137;50.960;3.118;2023-07-02T01:03:50;17.10;99.90
18024;DHT22;9137;50.960;3.118;2023-07-02T01:06:19;17.20;99.90
18024;DHT22;9137;50.960;3.118;2023-07-02T01:08:51;17.10;99.90
18024;DHT22;9137;50.960;3.118;2023-07-02T01:11:20;17.10;99.90
18024;DHT22;9137;50.960;3.118;2023-07-02T01:13:48;17.10;99.90
18024;DHT22;9137;50.960;3.118;2023-07-02T01:16:17;17.10;99.90
18024;DHT22;9137;50.960;3.118;2023-07-02T01:18:44;17.10;99.90
18024;DHT22;9137;50.960;3.118;2023-07-02T01:21:13;17.10;99.90
18024;DHT22;9137;50.960;3.118;2023-07-02T01:23:40;17.10;99.90
18024;DHT22;9137;50.960;3.118;2023-07-02T01:26:07;17.10;99.90
18024;DHT22;9137;50.960;3.118;2023-07-02T01:28:35;17.00;99.90
18024;DHT22;9137;50.960;3.118;2023-07-02T01:31:04;17.00;99.90
18024;DHT22;9137;50.960;3.118;2023-07-02T01:33:31;17.00;99.90
18024;DHT22;9137;50.960;3.118;2023-07-02T01:35:58;17.00;99.90
18024;DHT22;9137;50.960;3.118;2023-07-02T01:38:26;16.90;99.90
18024;DHT22;9137;50.960;3.118;2023-07-02T01:40:53;17.00;99.90
18024;DHT22;9137;50.960;3.118;2023-07-02T01:43:20;16.90;99.90
18024;DHT22;9137;50.960;3.118;2023-07-02T01:45:47;16.80;99.90
18024;DHT22;9137;50.960;3.118;2023-07-02T01:48:14;16.80;99.90
18024;DHT22;9137;50.960;3.118;2023-07-02T01:50:41;16.80;99.90
18024;DHT22;9137;50.960;3.118;2023-07-02T01:53:08;16.80;99.90
18024;DHT22;9137;50.960;3.118;2023-07-02T01:55:36;16.80;99.90
18024;DHT22;9137;50.960;3.118;2023-07-02T01:58:03;16.90;99.90
18024;DHT22;9137;50.960;3.118;2023-07-02T02:00:30;16.80;99.90
18024;DHT22;9137;50.960;3.118;2023-07-02T02:02:57;16.80;99.90
18024;DHT22;9137;50.960;3.118;2023-07-02T02:05:24;16.80;99.90
18024;DHT22;9137;50.960;3.118;2023-07-02T02:07:51;16.80;99.90
18024;DHT22;9137;50.960;3.118;2023-07-02T02:10:18;16.80;99.90
18024;DHT22;9137;50.960;3.118;2023-07-02T02:12:46;16.70;99.90
18024;DHT22;9137;50.960;3.118;2023-07-02T02:15:13;16.80;99.90
18024;DHT22;9137;50.960;3.118;2023-07-02T02:17:40;16.70;99.90
18024;DHT22;9137;50.960;3.118;2023-07-02T02:20:08;16.70;99.90
18024;DHT22;9137;50.960;3.118;2023-07-02T02:22:35;16.70;99.90
18024;DHT22;9137;50.960;3.118;2023-07-02T02:25:03;16.70;99.90
18024;DHT22;9137;50.960;3.118;2023-07-02T02:27:30;16.70;99.90
18024;DHT22;9137;50.960;3.118;2023-07-02T02:29:58;16.80;99.90
18024;DHT22;9137;50.960;3.118;2023-07-02T02:32:25;16.80;99.90
18024;DHT22;9137;50.960;3.118;2023-07-02T02:34:52;16.80;99.90
18024;DHT22;9137;50.960;3.118;2023-07-02T02:37:20;16.70;99.90
18024;DHT22;9137;50.960;3.118;2023-07-02T02:39:48;16.70;99.90
18024;DHT22;9137;50.960;3.118;2023-07-02T02:42:16;16.80;99.90
18024;DHT22;9137;50.960;3.118;2023-07-02T02:44:43;16.80;99.90
18024;DHT22;9137;50.960;3.118;2023-07-02T02:47:11;16.80;99.90
18024;DHT22;9137;50.960;3.118;2023-07-02T02:49:38;16.70;99.90
18024;DHT22;9137;50.960;3.118;2023-07-02T02:52:06;16.70;99.90
18024;DHT22;9137;50.960;3.118;2023-07-02T02:54:33;16.70;99.90
18024;DHT22;9137;50.960;3.118;2023-07-02T02:57:00;16.70;99.90
18024;DHT22;9137;50.960;3.118;2023-07-02T02:59:27;16.70;99.90
18024;DHT22;9137;50.960;3.118;2023-07-02T03:01:54;16.70;99.90
18024;DHT22;9137;50.960;3.118;2023-07-02T03:04:23;16.70;99.90
18024;DHT22;9137;50.960;3.118;2023-07-02T03:06:50;16.70;99.90
18024;DHT22;9137;50.960;3.118;2023-07-02T03:09:18;16.70;99.90
18024;DHT22;9137;50.960;3.118;2023-07-02T03:11:46;16.70;99.90
18024;DHT22;9137;50.960;3.118;2023-07-02T03:14:13;16.60;99.90
18024;DHT22;9137;50.960;3.118;2023-07-02T03:16:41;16.60;99.90
18024;DHT22;9137;50.960;3.118;2023-07-02T03:19:09;16.70;99.90
18024;DHT22;9137;50.960;3.118;2023-07-02T03:21:37;16.70;99.90
18024;DHT22;9137;50.960;3.118;2023-07-02T03:24:04;16.70;99.90
18024;DHT22;9137;50.960;3.118;2023-07-02T03:26:31;16.70;99.90
18024;DHT22;9137;50.960;3.118;2023-07-02T03:28:58;16.70;99.90
18024;DHT22;9137;50.960;3.118;2023-07-02T03:31:25;16.70;99.90
18024;DHT22;9137;50.960;3.118;2023-07-02T03:33:52;16.70;99.90
18024;DHT22;9137;50.960;3.118;2023-07-02T03:36:19;16.70;99.90
18024;DHT22;9137;50.960;3.118;2023-07-02T03:38:47;16.70;99.90
18024;DHT22;9137;50.960;3.118;2023-07-02T03:41:14;16.70;99.90
18024;DHT22;9137;50.960;3.118;2023-07-02T03:43:41;16.70;99.90
18024;DHT22;9137;50.960;3.118;2023-07-02T03:46:08;16.70;99.90
18024;DHT22;9137;50.960;3.118;2023-07-02T03:48:35;16.60;99.90
18024;DHT22;9137;50.960;3.118;2023-07-02T03:51:02;16.60;99.90
18024;DHT22;9137;50.960;3.118;2023-07-02T03:53:29;16.60;99.90
18024;DHT22;9137;50.960;3.118;2023-07-02T03:55:57;16.60;99.90
18024;DHT22;9137;50.960;3.118;2023-07-02T03:58:26;16.60;99.90
18024;DHT22;9137;50.960;3.118;2023-07-02T04:00:53;16.60;99.90
18024;DHT22;9137;50.960;3.118;2023-07-02T04:03:20;16.50;99.90
18024;DHT22;9137;50.960;3.118;2023-07-02T04:05:47;16.50;99.90
18024;DHT22;9137;50.960;3.118;2023-07-02T04:08:14;16.60;99.90
18024;DHT22;9137;50.960;3.118;2023-07-02T04:10:41;16.60;99.90
18024;DHT22;9137;50.960;3.118;2023-07-02T04:13:09;16.60;99.90
18024;DHT22;9137;50.960;3.118;2023-07-02T04:15:36;16.60;99.90
18024;DHT22;9137;50.960;3.118;2023-07-02T04:18:03;16.60;99.90
18024;DHT22;9137;50.960;3.118;2023-07-02T04:20:30;16.60;99.90
18024;DHT22;9137;50.960;3.118;2023-07-02T04:22:57;16.60;99.90
18024;DHT22;9137;50.960;3.118;2023-07-02T04:25:24;16.60;99.90
18024;DHT22;9137;50.960;3.118;2023-07-02T04:27:51;16.60;99.90
18024;DHT22;9137;50.960;3.118;2023-07-02T04:30:23;16.60;99.90
18024;DHT22;9137;50.960;3.118;2023-07-02T04:32:51;16.60;99.90
18024;DHT22;9137;50.960;3.118;2023-07-02T04:35:18;16.60;99.90
18024;DHT22;9137;50.960;3.118;2023-07-02T04:37:45;16.70;99.90
18024;DHT22;9137;50.960;3.118;2023-07-02T04:40:13;16.70;99.90
18024;DHT22;9137;50.960;3.118;2023-07-02T04:42:41;16.70;99.90
18024;DHT22;9137;50.960;3.118;2023-07-02T04:45:13;16.70;99.90
18024;DHT22;9137;50.960;3.118;2023-07-02T04:47:42;16.70;99.90
18024;DHT22;9137;50.960;3.118;2023-07-02T04:50:09;16.70;99.90
18024;DHT22;9137;50.960;3.118;2023-07-02T04:52:38;16.70;99.90
18024;DHT22;9137;50.960;3.118;2023-07-02T04:55:06;16.70;99.90
18024;DHT22;9137;50.960;3.118;2023-07-02T04:57:33;16.70;99.90
18024;DHT22;9137;50.960;3.118;2023-07-02T05:00:00;16.70;99.90
18024;DHT22;9137;50.960;3.118;2023-07-02T05:02:28;16.70;99.90
18024;DHT22;9137;50.960;3.118;2023-07-02T05:04:57;16.80;99.90
18024;DHT22;9137;50.960;3.118;2023-07-02T05:07:24;16.80;99.90
18024;DHT22;9137;50.960;3.118;2023-07-02T05:09:51;16.70;99.90
18024;DHT22;9137;50.960;3.118;2023-07-02T05:12:18;16.80;99.90
18024;DHT22;9137;50.960;3.118;2023-07-02T05:14:47;16.80;99.90
18024;DHT22;9137;50.960;3.118;2023-07-02T05:17:13;16.90;99.90
18024;DHT22;9137;50.960;3.118;2023-07-02T05:19:41;17.00;99.90
18024;DHT22;9137;50.960;3.118;2023-07-02T05:22:09;17.00;99.90
18024;DHT22;9137;50.960;3.118;2023-07-02T05:24:36;17.00;99.90
18024;DHT22;9137;50.960;3.118;2023-07-02T05:27:04;17.00;99.90
18024;DHT22;9137;50.960;3.118;2023-07-02T05:29:31;17.00;99.90
18024;DHT22;9137;50.960;3.118;2023-07-02T05:31:58;17.10;99.90
18024;DHT22;9137;50.960;3.118;2023-07-02T05:34:25;17.10;99.90
18024;DHT22;9137;50.960;3.118;2023-07-02T05:36:52;17.20;99.90
18024;DHT22;9137;50.960;3.118;2023-07-02T05:39:20;17.20;99.90
18024;DHT22;9137;50.960;3.118;2023-07-02T05:41:48;17.20;99.90
18024;DHT22;9137;50.960;3.118;2023-07-02T05:44:15;17.30;99.90
18024;DHT22;9137;50.960;3.118;2023-07-02T05:46:42;17.30;99.90
18024;DHT22;9137;50.960;3.118;2023-07-02T05:49:09;17.30;99.90
18024;DHT22;9137;50.960;3.118;2023-07-02T05:51:35;17.40;99.90
18024;DHT22;9137;50.960;3.118;2023-07-02T05:54:03;17.50;99.90
18024;DHT22;9137;50.960;3.118;2023-07-02T05:56:31;17.50;99.90
18024;DHT22;9137;50.960;3.118;2023-07-02T05:58:58;17.60;99.90
18024;DHT22;9137;50.960;3.118;2023-07-02T06:01:25;17.60;99.90
18024;DHT22;9137;50.960;3.118;2023-07-02T06:03:51;17.70;99.90
18024;DHT22;9137;50.960;3.118;2023-07-02T06:06:18;17.70;99.90
18024;DHT22;9137;50.960;3.118;2023-07-02T06:08:45;17.70;99.90
18024;DHT22;9137;50.960;3.118;2023-07-02T06:11:12;17.80;99.80
18024;DHT22;9137;50.960;3.118;2023-07-02T06:13:41;17.80;99.40
18024;DHT22;9137;50.960;3.118;2023-07-02T06:16:11;17.80;98.90
18024;DHT22;9137;50.960;3.118;2023-07-02T06:18:38;17.80;97.90
18024;DHT22;9137;50.960;3.118;2023-07-02T06:21:05;17.80;98.70
18024;DHT22;9137;50.960;3.118;2023-07-02T06:23:40;17.80;98.40
18024;DHT22;9137;50.960;3.118;2023-07-02T06:26:07;17.90;97.40
18024;DHT22;9137;50.960;3.118;2023-07-02T06:28:33;17.90;97.60
18024;DHT22;9137;50.960;3.118;2023-07-02T06:31:02;17.90;96.70
18024;DHT22;9137;50.960;3.118;2023-07-02T06:33:28;17.90;97.20
18024;DHT22;9137;50.960;3.118;2023-07-02T06:35:55;17.90;97.20
18024;DHT22;9137;50.960;3.118;2023-07-02T06:38:22;17.90;97.10
18024;DHT22;9137;50.960;3.118;2023-07-02T06:40:49;18.00;97.00
18024;DHT22;9137;50.960;3.118;2023-07-02T06:43:16;18.00;97.10
18024;DHT22;9137;50.960;3.118;2023-07-02T06:45:43;17.90;97.20
18024;DHT22;9137;50.960;3.118;2023-07-02T06:48:11;18.00;97.60
18024;DHT22;9137;50.960;3.118;2023-07-02T06:50:43;18.10;97.00
18024;DHT22;9137;50.960;3.118;2023-07-02T06:53:10;18.10;97.00
18024;DHT22;9137;50.960;3.118;2023-07-02T06:55:37;18.20;97.50
18024;DHT22;9137;50.960;3.118;2023-07-02T06:58:05;18.20;96.90
18024;DHT22;9137;50.960;3.118;2023-07-02T07:00:32;18.30;97.20
18024;DHT22;9137;50.960;3.118;2023-07-02T07:03:01;18.30;97.00
18024;DHT22;9137;50.960;3.118;2023-07-02T07:05:29;18.40;96.00
18024;DHT22;9137;50.960;3.118;2023-07-02T07:07:56;18.40;96.20
18024;DHT22;9137;50.960;3.118;2023-07-02T07:10:23;18.40;96.50
18024;DHT22;9137;50.960;3.118;2023-07-02T07:12:50;18.40;95.50
18024;DHT22;9137;50.960;3.118;2023-07-02T07:15:17;18.50;95.90
18024;DHT22;9137;50.960;3.118;2023-07-02T07:17:44;18.50;95.80
18024;DHT22;9137;50.960;3.118;2023-07-02T07:20:11;18.60;96.40
18024;DHT22;9137;50.960;3.118;2023-07-02T07:22:40;18.70;96.00
18024;DHT22;9137;50.960;3.118;2023-07-02T07:25:08;18.70;95.60
18024;DHT22;9137;50.960;3.118;2023-07-02T07:27:35;18.80;95.50
18024;DHT22;9137;50.960;3.118;2023-07-02T07:30:02;18.90;95.00
18024;DHT22;9137;50.960;3.118;2023-07-02T07:32:29;19.00;94.20
18024;DHT22;9137;50.960;3.118;2023-07-02T07:34:56;19.10;93.90
18024;DHT22;9137;50.960;3.118;2023-07-02T07:37:24;19.10;93.50
18024;DHT22;9137;50.960;3.118;2023-07-02T07:39:53;19.10;93.70
18024;DHT22;9137;50.960;3.118;2023-07-02T07:42:20;19.10;93.10
18024;DHT22;9137;50.960;3.118;2023-07-02T07:44:47;19.10;92.90
18024;DHT22;9137;50.960;3.118;2023-07-02T07:47:14;19.10;92.50
18024;DHT22;9137;50.960;3.118;2023-07-02T07:49:41;19.10;92.00
18024;DHT22;9137;50.960;3.118;2023-07-02T07:52:08;19.10;92.80
18024;DHT22;9137;50.960;3.118;2023-07-02T07:54:35;19.10;92.80
18024;DHT22;9137;50.960;3.118;2023-07-02T07:57:03;19.10;92.70
18024;DHT22;9137;50.960;3.118;2023-07-02T07:59:31;19.30;90.30
18024;DHT22;9137;50.960;3.118;2023-07-02T08:01:57;19.40;87.10
18024;DHT22;9137;50.960;3.118;2023-07-02T08:04:24;19.40;87.10
18024;DHT22;9137;50.960;3.118;2023-07-02T08:06:51;19.50;89.40
18024;DHT22;9137;50.960;3.118;2023-07-02T08:09:20;19.50;90.60
18024;DHT22;9137;50.960;3.118;2023-07-02T08:11:47;19.60;88.90
18024;DHT22;9137;50.960;3.118;2023-07-02T08:14:16;19.60;88.80
18024;DHT22;9137;50.960;3.118;2023-07-02T08:16:43;19.60;86.90
18024;DHT22;9137;50.960;3.118;2023-07-02T08:19:10;19.70;88.90
18024;DHT22;9137;50.960;3.118;2023-07-02T08:21:37;19.80;85.40
18024;DHT22;9137;50.960;3.118;2023-07-02T08:24:04;20.00;84.90
18024;DHT22;9137;50.960;3.118;2023-07-02T08:26:31;20.10;83.60
18024;DHT22;9137;50.960;3.118;2023-07-02T08:28:58;20.20;81.20
18024;DHT22;9137;50.960;3.118;2023-07-02T08:31:27;20.10;78.00
18024;DHT22;9137;50.960;3.118;2023-07-02T08:33:54;20.10;79.70
18024;DHT22;9137;50.960;3.118;2023-07-02T08:36:21;20.00;79.50
18024;DHT22;9137;50.960;3.118;2023-07-02T08:38:48;20.00;78.10
18024;DHT22;9137;50.960;3.118;2023-07-02T08:41:15;19.90;76.90
18024;DHT22;9137;50.960;3.118;2023-07-02T08:43:43;20.10;76.90
18024;DHT22;9137;50.960;3.118;2023-07-02T08:46:10;20.50;81.20
18024;DHT22;9137;50.960;3.118;2023-07-02T08:48:38;20.80;73.20
18024;DHT22;9137;50.960;3.118;2023-07-02T08:51:05;21.10;69.20
18024;DHT22;9137;50.960;3.118;2023-07-02T08:53:32;21.30;68.60
18024;DHT22;9137;50.960;3.118;2023-07-02T08:56:00;21.70;73.50
18024;DHT22;9137;50.960;3.118;2023-07-02T08:58:27;22.00;65.60
18024;DHT22;9137;50.960;3.118;2023-07-02T09:01:10;22.20;62.50
18024;DHT22;9137;50.960;3.118;2023-07-02T09:03:40;22.20;59.60
18024;DHT22;9137;50.960;3.118;2023-07-02T09:06:07;22.00;58.10
18024;DHT22;9137;50.960;3.118;2023-07-02T09:08:35;21.70;59.20
18024;DHT22;9137;50.960;3.118;2023-07-02T09:11:09;21.30;60.50
18024;DHT22;9137;50.960;3.118;2023-07-02T09:13:45;21.00;61.60
18024;DHT22;9137;50.960;3.118;2023-07-02T09:16:22;20.70;64.30
18024;DHT22;9137;50.960;3.118;2023-07-02T09:18:58;20.90;66.70
18024;DHT22;9137;50.960;3.118;2023-07-02T09:21:26;21.50;65.00
18024;DHT22;9137;50.960;3.118;2023-07-02T09:23:54;22.10;59.80
18024;DHT22;9137;50.960;3.118;2023-07-02T09:26:21;22.40;58.40
18024;DHT22;9137;50.960;3.118;2023-07-02T09:28:48;22.30;57.70
18024;DHT22;9137;50.960;3.118;2023-07-02T09:31:15;22.00;58.60
18024;DHT22;9137;50.960;3.118;2023-07-02T09:33:42;21.70;59.70
18024;DHT22;9137;50.960;3.118;2023-07-02T09:36:11;21.40;61.00
18024;DHT22;9137;50.960;3.118;2023-07-02T09:38:39;21.20;61.90
18024;DHT22;9137;50.960;3.118;2023-07-02T09:41:07;20.90;63.10
18024;DHT22;9137;50.960;3.118;2023-07-02T09:43:34;20.80;64.20
18024;DHT22;9137;50.960;3.118;2023-07-02T09:46:02;20.70;65.90
18024;DHT22;9137;50.960;3.118;2023-07-02T09:48:31;20.80;68.00
18024;DHT22;9137;50.960;3.118;2023-07-02T09:51:00;21.30;67.10
18024;DHT22;9137;50.960;3.118;2023-07-02T09:53:29;21.90;67.90
18024;DHT22;9137;50.960;3.118;2023-07-02T09:55:56;22.40;58.20
18024;DHT22;9137;50.960;3.118;2023-07-02T09:58:23;22.20;57.10
18024;DHT22;9137;50.960;3.118;2023-07-02T10:00:50;21.90;57.60
18024;DHT22;9137;50.960;3.118;2023-07-02T10:03:17;21.70;60.40
18024;DHT22;9137;50.960;3.118;2023-07-02T10:06:03;21.60;59.10
18024;DHT22;9137;50.960;3.118;2023-07-02T10:08:31;21.50;59.90
18024;DHT22;9137;50.960;3.118;2023-07-02T10:11:07;21.80;65.70
18024;DHT22;9137;50.960;3.118;2023-07-02T10:13:34;22.50;59.60
18024;DHT22;9137;50.960;3.118;2023-07-02T10:16:02;23.00;58.20
18024;DHT22;9137;50.960;3.118;2023-07-02T10:18:29;23.20;54.10
18024;DHT22;9137;50.960;3.118;2023-07-02T10:20:56;23.20;52.40
18024;DHT22;9137;50.960;3.118;2023-07-02T10:23:34;22.70;52.00
18024;DHT22;9137;50.960;3.118;2023-07-02T10:26:13;22.40;54.00
18024;DHT22;9137;50.960;3.118;2023-07-02T10:28:40;22.50;55.30
18024;DHT22;9137;50.960;3.118;2023-07-02T10:31:18;22.50;50.20
18024;DHT22;9137;50.960;3.118;2023-07-02T10:33:46;22.90;55.90
18024;DHT22;9137;50.960;3.118;2023-07-02T10:36:18;23.50;52.20
18024;DHT22;9137;50.960;3.118;2023-07-02T10:38:47;23.50;51.10
18024;DHT22;9137;50.960;3.118;2023-07-02T10:41:24;23.30;50.60
18024;DHT22;9137;50.960;3.118;2023-07-02T10:43:51;23.10;53.60
18024;DHT22;9137;50.960;3.118;2023-07-02T10:46:19;23.20;52.50
18024;DHT22;9137;50.960;3.118;2023-07-02T10:48:51;23.20;51.70
18024;DHT22;9137;50.960;3.118;2023-07-02T10:51:18;23.10;50.40
18024;DHT22;9137;50.960;3.118;2023-07-02T10:53:56;22.80;51.60
18024;DHT22;9137;50.960;3.118;2023-07-02T10:56:24;23.10;54.10
18024;DHT22;9137;50.960;3.118;2023-07-02T10:58:52;23.80;52.80
18024;DHT22;9137;50.960;3.118;2023-07-02T11:01:23;24.10;50.50
18024;DHT22;9137;50.960;3.118;2023-07-02T11:03:56;24.00;48.00
18024;DHT22;9137;50.960;3.118;2023-07-02T11:06:26;23.80;48.20
18024;DHT22;9137;50.960;3.118;2023-07-02T11:08:55;23.50;47.80
18024;DHT22;9137;50.960;3.118;2023-07-02T11:11:22;23.40;51.40
18024;DHT22;9137;50.960;3.118;2023-07-02T11:13:51;23.90;52.20
18024;DHT22;9137;50.960;3.118;2023-07-02T11:16:22;24.20;49.70
18024;DHT22;9137;50.960;3.118;2023-07-02T11:18:52;24.50;46.40
18024;DHT22;9137;50.960;3.118;2023-07-02T11:21:19;24.60;46.50
18024;DHT22;9137;50.960;3.118;2023-07-02T11:23:46;24.50;44.70
18024;DHT22;9137;50.960;3.118;2023-07-02T11:26:15;24.50;46.20
18024;DHT22;9137;50.960;3.118;2023-07-02T11:28:49;24.40;45.40
18024;DHT22;9137;50.960;3.118;2023-07-02T11:31:26;24.20;47.60
18024;DHT22;9137;50.960;3.118;2023-07-02T11:33:54;24.00;45.60
18024;DHT22;9137;50.960;3.118;2023-07-02T11:36:22;23.90;47.70
18024;DHT22;9137;50.960;3.118;2023-07-02T11:38:50;23.90;46.40
18024;DHT22;9137;50.960;3.118;2023-07-02T11:41:19;24.40;47.40
18024;DHT22;9137;50.960;3.118;2023-07-02T11:43:46;24.70;46.70
18024;DHT22;9137;50.960;3.118;2023-07-02T11:46:13;24.80;46.40
18024;DHT22;9137;50.960;3.118;2023-07-02T11:48:40;24.90;44.80
18024;DHT22;9137;50.960;3.118;2023-07-02T11:51:08;25.00;46.50
18024;DHT22;9137;50.960;3.118;2023-07-02T11:53:34;25.10;45.60
18024;DHT22;9137;50.960;3.118;2023-07-02T11:56:01;25.30;42.50
18024;DHT22;9137;50.960;3.118;2023-07-02T11:58:30;25.10;44.00
18024;DHT22;9137;50.960;3.118;2023-07-02T12:00:57;24.60;43.30
18024;DHT22;9137;50.960;3.118;2023-07-02T12:03:23;24.20;45.00
18024;DHT22;9137;50.960;3.118;2023-07-02T12:05:50;23.90;46.00
18024;DHT22;9137;50.960;3.118;2023-07-02T12:08:17;24.00;45.80
18024;DHT22;9137;50.960;3.118;2023-07-02T12:10:44;24.20;45.90
18024;DHT22;9137;50.960;3.118;2023-07-02T12:13:11;24.40;44.10
18024;DHT22;9137;50.960;3.118;2023-07-02T12:15:40;24.20;45.00
18024;DHT22;9137;50.960;3.118;2023-07-02T12:18:07;24.20;44.70
18024;DHT22;9137;50.960;3.118;2023-07-02T12:20:35;24.20;45.10
18024;DHT22;9137;50.960;3.118;2023-07-02T12:23:02;24.40;44.40
18024;DHT22;9137;50.960;3.118;2023-07-02T12:25:29;24.10;44.40
18024;DHT22;9137;50.960;3.118;2023-07-02T12:27:55;24.00;45.40
18024;DHT22;9137;50.960;3.118;2023-07-02T12:30:23;24.00;45.10
18024;DHT22;9137;50.960;3.118;2023-07-02T12:32:51;24.00;44.50
18024;DHT22;9137;50.960;3.118;2023-07-02T12:35:18;23.90;44.90
18024;DHT22;9137;50.960;3.118;2023-07-02T12:37:45;23.80;46.30
18024;DHT22;9137;50.960;3.118;2023-07-02T12:40:13;23.90;45.80
18024;DHT22;9137;50.960;3.118;2023-07-02T12:42:41;24.00;45.20
18024;DHT22;9137;50.960;3.118;2023-07-02T12:45:09;23.90;45.10
18024;DHT22;9137;50.960;3.118;2023-07-02T12:47:37;23.60;45.20
18024;DHT22;9137;50.960;3.118;2023-07-02T12:50:06;23.30;46.40
18024;DHT22;9137;50.960;3.118;2023-07-02T12:52:34;23.30;48.40
18024;DHT22;9137;50.960;3.118;2023-07-02T12:55:01;23.50;46.70
18024;DHT22;9137;50.960;3.118;2023-07-02T12:57:28;23.70;46.20
18024;DHT22;9137;50.960;3.118;2023-07-02T12:59:56;23.50;44.50
18024;DHT22;9137;50.960;3.118;2023-07-02T13:02:23;23.60;46.50
18024;DHT22;9137;50.960;3.118;2023-07-02T13:04:50;23.40;45.90
18024;DHT22;9137;50.960;3.118;2023-07-02T13:07:18;23.30;46.40
18024;DHT22;9137;50.960;3.118;2023-07-02T13:09:45;23.30;46.90
18024;DHT22;9137;50.960;3.118;2023-07-02T13:12:12;23.50;47.00
18024;DHT22;9137;50.960;3.118;2023-07-02T13:14:40;23.60;47.30
18024;DHT22;9137;50.960;3.118;2023-07-02T13:17:07;23.60;47.20
18024;DHT22;9137;50.960;3.118;2023-07-02T13:19:34;23.50;47.70
18024;DHT22;9137;50.960;3.118;2023-07-02T13:22:01;23.80;48.10
18024;DHT22;9137;50.960;3.118;2023-07-02T13:24:32;24.40;46.10
18024;DHT22;9137;50.960;3.118;2023-07-02T13:27:02;24.70;45.30
18024;DHT22;9137;50.960;3.118;2023-07-02T13:29:30;25.10;44.30
18024;DHT22;9137;50.960;3.118;2023-07-02T13:31:57;25.60;44.40
18024;DHT22;9137;50.960;3.118;2023-07-02T13:34:24;25.40;41.10
18024;DHT22;9137;50.960;3.118;2023-07-02T13:36:51;24.70;42.90
18024;DHT22;9137;50.960;3.118;2023-07-02T13:39:18;24.50;45.10
18024;DHT22;9137;50.960;3.118;2023-07-02T13:41:46;24.30;43.80
18024;DHT22;9137;50.960;3.118;2023-07-02T13:44:14;24.20;45.10
18024;DHT22;9137;50.960;3.118;2023-07-02T13:46:42;24.60;45.30
18024;DHT22;9137;50.960;3.118;2023-07-02T13:49:09;25.00;43.60
18024;DHT22;9137;50.960;3.118;2023-07-02T13:51:36;24.90;42.70
18024;DHT22;9137;50.960;3.118;2023-07-02T13:54:03;24.30;43.60
18024;DHT22;9137;50.960;3.118;2023-07-02T13:56:30;23.90;44.90
18024;DHT22;9137;50.960;3.118;2023-07-02T13:59:03;23.60;45.80
18024;DHT22;9137;50.960;3.118;2023-07-02T14:01:30;23.60;46.10
18024;DHT22;9137;50.960;3.118;2023-07-02T14:03:58;23.40;46.70
18024;DHT22;9137;50.960;3.118;2023-07-02T14:06:25;23.40;46.70
18024;DHT22;9137;50.960;3.118;2023-07-02T14:08:52;23.80;47.00
18024;DHT22;9137;50.960;3.118;2023-07-02T14:11:19;23.60;45.70
18024;DHT22;9137;50.960;3.118;2023-07-02T14:13:46;23.50;46.30
18024;DHT22;9137;50.960;3.118;2023-07-02T14:16:15;23.30;47.20
18024;DHT22;9137;50.960;3.118;2023-07-02T14:18:42;23.30;48.20
18024;DHT22;9137;50.960;3.118;2023-07-02T14:21:09;23.20;48.20
18024;DHT22;9137;50.960;3.118;2023-07-02T14:23:36;23.40;46.90
18024;DHT22;9137;50.960;3.118;2023-07-02T14:26:03;23.20;47.90
18024;DHT22;9137;50.960;3.118;2023-07-02T14:28:30;23.00;48.20
18024;DHT22;9137;50.960;3.118;2023-07-02T14:30:58;22.70;48.00
18024;DHT22;9137;50.960;3.118;2023-07-02T14:33:28;22.60;48.40
18024;DHT22;9137;50.960;3.118;2023-07-02T14:35:55;22.60;48.70
18024;DHT22;9137;50.960;3.118;2023-07-02T14:38:23;22.90;49.30
18024;DHT22;9137;50.960;3.118;2023-07-02T14:40:50;23.40;47.40
18024;DHT22;9137;50.960;3.118;2023-07-02T14:43:18;23.30;46.00
18024;DHT22;9137;50.960;3.118;2023-07-02T14:45:47;23.00;47.20
18024;DHT22;9137;50.960;3.118;2023-07-02T14:48:15;22.70;48.10
18024;DHT22;9137;50.960;3.118;2023-07-02T14:50:44;22.90;49.20
18024;DHT22;9137;50.960;3.118;2023-07-02T14:53:12;23.00;47.70
18024;DHT22;9137;50.960;3.118;2023-07-02T14:55:39;22.80;48.40
18024;DHT22;9137;50.960;3.118;2023-07-02T14:58:07;22.70;49.00
18024;DHT22;9137;50.960;3.118;2023-07-02T15:00:36;22.60;49.80
18024;DHT22;9137;50.960;3.118;2023-07-02T15:03:03;22.80;47.90
18024;DHT22;9137;50.960;3.118;2023-07-02T15:05:29;23.30;47.60
18024;DHT22;9137;50.960;3.118;2023-07-02T15:07:58;23.60;46.90
18024;DHT22;9137;50.960;3.118;2023-07-02T15:10:25;23.70;46.10
18024;DHT22;9137;50.960;3.118;2023-07-02T15:12:51;23.80;44.50
18024;DHT22;9137;50.960;3.118;2023-07-02T15:15:18;23.70;45.40
18024;DHT22;9137;50.960;3.118;2023-07-02T15:17:47;23.60;44.40
18024;DHT22;9137;50.960;3.118;2023-07-02T15:20:14;23.80;45.50
18024;DHT22;9137;50.960;3.118;2023-07-02T15:22:41;24.00;45.40
18024;DHT22;9137;50.960;3.118;2023-07-02T15:25:09;23.70;45.90
18024;DHT22;9137;50.960;3.118;2023-07-02T15:27:36;23.20;47.40
18024;DHT22;9137;50.960;3.118;2023-07-02T15:30:04;22.90;49.60
18024;DHT22;9137;50.960;3.118;2023-07-02T15:32:31;22.80;49.80
18024;DHT22;9137;50.960;3.118;2023-07-02T15:34:58;22.60;49.10
18024;DHT22;9137;50.960;3.118;2023-07-02T15:37:25;22.50;49.60
18024;DHT22;9137;50.960;3.118;2023-07-02T15:39:51;22.60;50.20
18024;DHT22;9137;50.960;3.118;2023-07-02T15:42:20;22.70;49.30
18024;DHT22;9137;50.960;3.118;2023-07-02T15:44:47;23.00;50.30
18024;DHT22;9137;50.960;3.118;2023-07-02T15:47:13;22.80;48.20
18024;DHT22;9137;50.960;3.118;2023-07-02T15:49:41;22.60;49.80